createdAt,value
2022-11-12T00:04:12.047Z,99845.06
2022-11-12T00:09:32.364Z,99840.75
2022-11-12T00:14:52.646Z,99845.22
2022-11-12T00:20:13.084Z,99832.44
2022-11-12T00:25:33.465Z,99844.28
2022-11-12T00:30:53.831Z,99850.66
2022-11-12T00:36:14.391Z,99850.03
2022-11-12T00:41:34.427Z,99840.78
2022-11-12T00:46:54.998Z,99837.72
2022-11-12T00:52:15.123Z,99832.44
2022-11-12T00:57:35.576Z,99838.69
2022-11-12T01:02:56.168Z,99831.00
2022-11-12T01:08:16.285Z,99841.22
2022-11-12T01:13:42.969Z,99830.69
2022-11-12T01:19:08.027Z,99833.41
2022-11-12T01:24:28.375Z,99848.44
2022-11-12T01:29:48.580Z,99838.06
2022-11-12T01:35:09.143Z,99844.75
2022-11-12T01:40:29.299Z,99836.13
2022-11-12T01:45:51.388Z,99831.47
2022-11-12T01:51:12.696Z,99837.41
2022-11-12T01:56:33.869Z,99837.88
2022-11-12T02:01:53.879Z,99834.38
2022-11-12T02:07:14.951Z,99829.56
2022-11-12T02:12:54.674Z,99826.81
2022-11-12T02:18:15.459Z,99825.97
2022-11-12T02:23:37.307Z,99823.69
2022-11-12T02:28:57.351Z,99834.56
2022-11-12T02:34:17.746Z,99832.97
2022-11-12T02:39:38.144Z,99831.84
2022-11-12T02:44:58.650Z,99823.03
2022-11-12T02:50:19.628Z,99820.13
2022-11-12T02:55:39.800Z,99826.06
2022-11-12T03:01:00.412Z,99835.81
2022-11-12T03:06:20.898Z,99832.59
2022-11-12T03:11:41.357Z,99834.06
2022-11-12T03:17:01.720Z,99832.44
2022-11-12T03:22:22.118Z,99830.25
2022-11-12T03:27:42.438Z,99831.25
2022-11-12T03:33:04.063Z,99841.06
2022-11-12T03:38:25.125Z,99846.50
2022-11-12T03:43:46.089Z,99833.41
2022-11-12T03:49:06.486Z,99842.34
2022-11-12T03:54:26.810Z,99831.81
2022-11-12T03:59:47.205Z,99836.75
2022-11-12T04:05:27.107Z,99837.84
2022-11-12T04:10:47.838Z,99834.31
2022-11-12T04:16:32.880Z,99824.34
2022-11-12T04:21:56.402Z,99830.56
2022-11-12T04:27:22.763Z,99831.84
2022-11-12T04:32:54.752Z,99830.91
2022-11-12T04:38:15.183Z,99839.38
2022-11-12T04:43:53.948Z,99839.09
2022-11-12T04:49:14.072Z,99841.78
2022-11-12T04:54:34.729Z,99843.44
2022-11-12T04:59:55.211Z,99844.91
2022-11-12T05:05:15.607Z,99849.59
2022-11-12T05:10:35.990Z,99849.72
2022-11-12T05:15:56.443Z,99852.22
2022-11-12T05:21:39.291Z,99855.97
2022-11-12T05:27:03.339Z,99859.75
2022-11-12T05:32:23.821Z,99875.81
2022-11-12T05:37:44.091Z,99861.97
2022-11-12T05:43:04.513Z,99862.78
2022-11-12T05:48:24.927Z,99873.81
2022-11-12T05:53:45.325Z,99877.81
2022-11-12T05:59:08.364Z,99874.00
2022-11-12T06:04:29.492Z,99878.19
2022-11-12T06:09:49.868Z,99885.28
2022-11-12T06:15:10.201Z,99888.00
2022-11-12T06:20:30.779Z,99887.59
2022-11-12T06:25:51.379Z,99891.56
2022-11-12T06:31:11.873Z,99892.56
2022-11-12T06:36:32.321Z,99891.88
2022-11-12T06:41:52.640Z,99882.72
2022-11-12T06:47:13.782Z,99884.03
2022-11-12T06:52:34.775Z,99890.44
2022-11-12T06:57:55.497Z,99892.63
2022-11-12T07:03:16.177Z,99900.25
2022-11-12T07:08:37.721Z,99902.41
2022-11-12T07:13:58.148Z,99897.66
2022-11-12T07:19:18.350Z,99896.25
2022-11-12T07:24:38.929Z,99890.06
2022-11-12T07:29:59.293Z,99897.97
2022-11-12T07:35:19.545Z,99894.06
2022-11-12T07:40:40.014Z,99889.47
2022-11-12T07:46:09.104Z,99888.97
2022-11-12T07:51:31.060Z,99899.22
2022-11-12T07:56:51.556Z,99897.47
2022-11-12T08:02:11.959Z,99891.72
2022-11-12T08:07:32.664Z,99888.06
2022-11-12T08:12:56.311Z,99894.44
2022-11-12T08:18:17.269Z,99894.91
2022-11-12T08:23:37.967Z,99889.00
2022-11-12T08:28:58.404Z,99897.16
2022-11-12T08:34:22.644Z,99892.34
2022-11-12T08:39:43.531Z,99893.44
2022-11-12T08:45:04.234Z,99900.56
2022-11-12T08:50:24.581Z,99893.78
2022-11-12T08:55:44.913Z,99891.16
2022-11-12T09:01:07.388Z,99884.63
2022-11-12T09:06:27.658Z,99895.28
2022-11-12T09:11:48.032Z,99888.38
2022-11-12T09:17:08.404Z,99898.91
2022-11-12T09:22:28.856Z,99892.53
2022-11-12T09:27:49.371Z,99894.44
2022-11-12T09:33:10.099Z,99894.19
2022-11-12T09:38:31.468Z,99888.19
2022-11-12T09:43:58.118Z,99876.69
2022-11-12T09:49:48.070Z,99871.31
2022-11-12T09:55:29.011Z,99879.31
2022-11-12T10:01:06.863Z,99870.28
2022-11-12T10:06:38.517Z,99869.47
2022-11-12T10:12:31.648Z,99882.31
2022-11-12T10:18:14.124Z,99883.91
2022-11-12T10:24:01.185Z,99882.50
2022-11-12T10:29:42.560Z,99873.88
2022-11-12T10:35:02.808Z,99881.28
2022-11-12T10:40:26.465Z,99882.25
2022-11-12T10:45:48.507Z,99875.56
2022-11-12T10:51:30.361Z,99886.00
2022-11-12T10:56:55.458Z,99876.88
2022-11-12T11:02:19.252Z,99880.63
2022-11-12T11:07:49.299Z,99882.53
2022-11-12T11:13:21.145Z,99886.81
2022-11-12T11:18:45.512Z,99891.00
2022-11-12T11:24:30.252Z,99876.06
2022-11-12T11:30:13.703Z,99873.88
2022-11-12T11:36:04.429Z,99880.53
2022-11-12T11:41:44.722Z,99875.56
2022-11-12T11:47:14.207Z,99868.03
2022-11-12T11:52:52.367Z,99857.97
2022-11-12T11:58:41.990Z,99848.00
2022-11-12T12:04:13.912Z,99849.66
2022-11-12T12:09:48.937Z,99848.34
2022-11-12T12:15:27.545Z,99844.38
2022-11-12T12:20:53.988Z,99829.69
2022-11-12T12:26:29.484Z,99822.88
2022-11-12T12:32:24.477Z,99817.59
2022-11-12T12:38:01.447Z,99815.25
2022-11-12T12:43:35.288Z,99812.41
2022-11-12T12:48:56.839Z,99807.13
2022-11-12T12:54:37.394Z,99803.16
2022-11-12T13:00:33.814Z,99797.13
2022-11-12T13:06:16.379Z,99798.66
2022-11-12T13:12:01.074Z,99797.78
2022-11-12T13:17:48.175Z,99794.13
2022-11-12T13:23:10.770Z,99793.75
2022-11-12T13:28:31.148Z,99808.47
2022-11-12T13:33:51.709Z,99796.69
2022-11-12T13:39:19.298Z,99788.28
2022-11-12T13:44:39.757Z,99791.50
2022-11-12T13:50:01.708Z,99770.09
2022-11-12T13:55:23.348Z,99779.69
2022-11-12T14:00:53.089Z,99775.28
2022-11-12T14:06:35.234Z,99778.91
2022-11-12T14:12:23.038Z,99778.31
2022-11-12T14:17:55.154Z,99784.72
2022-11-12T14:23:25.162Z,99782.25
2022-11-12T14:28:45.680Z,99780.91
2022-11-12T14:34:30.117Z,99781.72
2022-11-12T14:39:51.057Z,99765.91
2022-11-12T14:45:18.235Z,99768.13
2022-11-12T14:50:41.636Z,99774.91
2022-11-12T14:56:05.516Z,99764.34
2022-11-12T15:07:23.611Z,99772.03
2022-11-12T15:12:43.615Z,99773.03
2022-11-12T15:18:23.724Z,99780.69
2022-11-12T15:23:53.180Z,99781.41
2022-11-12T15:29:27.293Z,99764.59
2022-11-12T15:34:49.118Z,99778.78
2022-11-12T15:40:16.406Z,99769.91
2022-11-12T15:45:36.560Z,99770.19
2022-11-12T15:50:56.781Z,99780.72
2022-11-12T15:56:21.708Z,99768.13
2022-11-12T16:01:43.176Z,99774.03
2022-11-12T16:07:06.895Z,99770.75
2022-11-12T16:12:28.094Z,99766.38
2022-11-12T16:17:48.374Z,99770.56
2022-11-12T16:23:09.880Z,99763.22
2022-11-12T16:28:30.494Z,99761.06
2022-11-12T16:33:50.995Z,99764.31
2022-11-12T16:39:13.593Z,99764.50
2022-11-12T16:44:34.252Z,99751.66
2022-11-12T16:49:54.732Z,99760.97
2022-11-12T16:55:15.697Z,99754.44
2022-11-12T17:00:36.216Z,99750.47
2022-11-12T17:05:56.420Z,99752.22
2022-11-12T17:11:17.373Z,99746.19
2022-11-12T17:16:37.565Z,99741.69
2022-11-12T17:21:58.036Z,99740.41
2022-11-12T17:27:18.622Z,99751.59
2022-11-12T17:32:38.964Z,99735.47
2022-11-12T17:37:59.130Z,99741.50
2022-11-12T17:43:19.286Z,99745.66
2022-11-12T17:48:40.543Z,99728.91
2022-11-12T17:54:00.668Z,99737.31
2022-11-12T17:59:20.790Z,99739.06
2022-11-12T18:04:41.236Z,99741.44
2022-11-12T18:10:01.317Z,99737.06
2022-11-12T18:15:21.938Z,99728.13
2022-11-12T18:20:42.665Z,99733.41
2022-11-12T18:26:02.803Z,99730.97
2022-11-12T18:31:24.329Z,99731.88
2022-11-12T18:36:44.962Z,99728.94
2022-11-12T18:42:05.396Z,99726.38
2022-11-12T18:47:25.704Z,99724.91
2022-11-12T18:52:46.154Z,99715.00
2022-11-12T18:58:06.278Z,99710.31
2022-11-12T19:03:27.036Z,99712.47
2022-11-12T19:08:47.837Z,99708.78
2022-11-12T19:14:08.201Z,99701.88
2022-11-12T19:19:28.508Z,99715.38
2022-11-12T19:24:48.797Z,99709.38
2022-11-12T19:30:09.946Z,99709.53
2022-11-12T19:35:30.209Z,99729.63
2022-11-12T19:40:50.885Z,99726.25
2022-11-12T19:46:11.761Z,99716.06
2022-11-12T19:51:32.609Z,99719.47
2022-11-12T19:56:53.112Z,99722.91
2022-11-12T20:02:13.667Z,99710.53
2022-11-12T20:07:34.458Z,99719.38
2022-11-12T20:12:54.868Z,99702.84
2022-11-12T20:18:16.053Z,99698.16
2022-11-12T20:23:37.859Z,99701.56
2022-11-12T20:28:58.520Z,99704.00
2022-11-12T20:34:18.904Z,99703.41
2022-11-12T20:39:39.306Z,99697.59
2022-11-12T20:44:59.859Z,99696.81
2022-11-12T20:50:20.531Z,99697.41
2022-11-12T20:55:40.860Z,99695.59
2022-11-12T21:01:01.709Z,99690.31
2022-11-12T21:06:25.135Z,99684.41
2022-11-12T21:11:45.586Z,99686.41
2022-11-12T21:17:05.875Z,99668.09
2022-11-12T21:22:26.467Z,99667.41
2022-11-12T21:27:46.693Z,99676.22
2022-11-12T21:33:07.083Z,99676.69
2022-11-12T21:38:28.289Z,99663.19
2022-11-12T21:43:49.527Z,99666.97
2022-11-12T21:49:10.021Z,99664.78
2022-11-12T21:54:30.240Z,99669.41
2022-11-12T21:59:50.441Z,99671.19
2022-11-12T22:05:10.830Z,99662.19
2022-11-12T22:10:31.245Z,99658.47
2022-11-12T22:15:52.778Z,99662.78
2022-11-12T22:21:17.167Z,99644.19
2022-11-12T22:26:37.769Z,99651.63
2022-11-12T22:31:57.934Z,99631.81
2022-11-12T22:37:18.344Z,99628.56
2022-11-12T22:42:38.557Z,99620.94
2022-11-12T22:47:59.377Z,99608.88
2022-11-12T22:53:19.686Z,99621.59
2022-11-12T22:58:44.783Z,99608.94
2022-11-12T23:04:07.104Z,99613.81
2022-11-12T23:09:27.662Z,99609.34
2022-11-12T23:14:48.243Z,99618.69
2022-11-12T23:20:09.592Z,99610.31
2022-11-12T23:25:33.218Z,99595.59
2022-11-12T23:30:53.411Z,99602.78
2022-11-12T23:36:13.783Z,99587.00
2022-11-12T23:41:34.083Z,99586.13
2022-11-12T23:46:54.468Z,99583.59
2022-11-12T23:52:15.031Z,99575.13
2022-11-12T23:57:35.664Z,99576.88
